sensor_id;sensor_type;location;lat;lon;timestamp;P1;durP1;ratioP1;P2;durP2;ratioP2
12597;SDS011;6364;53.590;9.956;2023-05-07T00:02:19;18.42;;;12.70;;
12597;SDS011;6364;53.590;9.956;2023-05-07T00:04:45;16.00;;;12.95;;
12597;SDS011;6364;53.590;9.956;2023-05-07T00:07:10;14.52;;;11.93;;
12597;SDS011;6364;53.590;9.956;2023-05-07T00:09:35;20.23;;;12.98;;
12597;SDS011;6364;53.590;9.956;2023-05-07T00:12:01;21.92;;;13.32;;
12597;SDS011;6364;53.590;9.956;2023-05-07T00:14:26;20.15;;;12.98;;
12597;SDS011;6364;53.590;9.956;2023-05-07T00:16:51;15.75;;;12.43;;
12597;SDS011;6364;53.590;9.956;2023-05-07T00:19:17;19.17;;;13.95;;
12597;SDS011;6364;53.590;9.956;2023-05-07T00:21:42;17.70;;;13.00;;
12597;SDS011;6364;53.590;9.956;2023-05-07T00:24:07;19.08;;;14.32;;
12597;SDS011;6364;53.590;9.956;2023-05-07T00:26:33;18.27;;;13.60;;
12597;SDS011;6364;53.590;9.956;2023-05-07T00:28:58;19.75;;;14.10;;
12597;SDS011;6364;53.590;9.956;2023-05-07T00:31:23;18.02;;;13.30;;
12597;SDS011;6364;53.590;9.956;2023-05-07T00:33:49;22.38;;;14.20;;
12597;SDS011;6364;53.590;9.956;2023-05-07T00:36:14;21.48;;;14.25;;
12597;SDS011;6364;53.590;9.956;2023-05-07T00:38:39;18.08;;;13.45;;
12597;SDS011;6364;53.590;9.956;2023-05-07T00:41:05;19.17;;;14.32;;
12597;SDS011;6364;53.590;9.956;2023-05-07T00:43:30;21.27;;;13.68;;
12597;SDS011;6364;53.590;9.956;2023-05-07T00:45:56;18.67;;;14.63;;
12597;SDS011;6364;53.590;9.956;2023-05-07T00:48:22;19.33;;;14.18;;
12597;SDS011;6364;53.590;9.956;2023-05-07T00:50:49;20.30;;;15.07;;
12597;SDS011;6364;53.590;9.956;2023-05-07T00:53:14;17.92;;;14.18;;
12597;SDS011;6364;53.590;9.956;2023-05-07T00:55:40;18.48;;;13.60;;
12597;SDS011;6364;53.590;9.956;2023-05-07T00:58:05;22.58;;;14.23;;
12597;SDS011;6364;53.590;9.956;2023-05-07T01:00:31;18.83;;;13.60;;
12597;SDS011;6364;53.590;9.956;2023-05-07T01:02:56;20.25;;;14.48;;
12597;SDS011;6364;53.590;9.956;2023-05-07T01:05:22;19.25;;;13.27;;
12597;SDS011;6364;53.590;9.956;2023-05-07T01:07:48;18.15;;;13.30;;
12597;SDS011;6364;53.590;9.956;2023-05-07T01:10:14;19.50;;;14.32;;
12597;SDS011;6364;53.590;9.956;2023-05-07T01:12:40;18.38;;;13.38;;
12597;SDS011;6364;53.590;9.956;2023-05-07T01:15:06;20.60;;;14.50;;
12597;SDS011;6364;53.590;9.956;2023-05-07T01:17:36;22.95;;;14.07;;
12597;SDS011;6364;53.590;9.956;2023-05-07T01:20:04;23.08;;;14.27;;
12597;SDS011;6364;53.590;9.956;2023-05-07T01:22:34;21.23;;;13.95;;
12597;SDS011;6364;53.590;9.956;2023-05-07T01:25:01;22.95;;;13.98;;
12597;SDS011;6364;53.590;9.956;2023-05-07T01:27:27;21.42;;;13.35;;
12597;SDS011;6364;53.590;9.956;2023-05-07T01:29:53;16.45;;;12.35;;
12597;SDS011;6364;53.590;9.956;2023-05-07T01:32:25;15.90;;;12.07;;
12597;SDS011;6364;53.590;9.956;2023-05-07T01:34:54;15.38;;;11.10;;
12597;SDS011;6364;53.590;9.956;2023-05-07T01:37:20;14.60;;;11.68;;
12597;SDS011;6364;53.590;9.956;2023-05-07T01:39:46;14.68;;;11.52;;
12597;SDS011;6364;53.590;9.956;2023-05-07T01:42:12;17.13;;;11.75;;
12597;SDS011;6364;53.590;9.956;2023-05-07T01:44:37;16.65;;;12.48;;
12597;SDS011;6364;53.590;9.956;2023-05-07T01:47:03;16.25;;;11.50;;
12597;SDS011;6364;53.590;9.956;2023-05-07T01:49:28;17.23;;;11.65;;
12597;SDS011;6364;53.590;9.956;2023-05-07T01:51:53;15.30;;;11.35;;
12597;SDS011;6364;53.590;9.956;2023-05-07T01:54:20;15.57;;;10.85;;
12597;SDS011;6364;53.590;9.956;2023-05-07T01:56:50;16.65;;;12.07;;
12597;SDS011;6364;53.590;9.956;2023-05-07T01:59:15;14.85;;;11.38;;
12597;SDS011;6364;53.590;9.956;2023-05-07T02:01:41;15.55;;;11.30;;
12597;SDS011;6364;53.590;9.956;2023-05-07T02:04:06;16.15;;;12.05;;
12597;SDS011;6364;53.590;9.956;2023-05-07T02:06:31;14.20;;;10.68;;
12597;SDS011;6364;53.590;9.956;2023-05-07T02:08:57;14.32;;;11.13;;
12597;SDS011;6364;53.590;9.956;2023-05-07T02:11:22;14.75;;;10.75;;
12597;SDS011;6364;53.590;9.956;2023-05-07T02:13:47;15.35;;;11.25;;
12597;SDS011;6364;53.590;9.956;2023-05-07T02:16:12;14.43;;;10.70;;
12597;SDS011;6364;53.590;9.956;2023-05-07T02:18:39;15.15;;;10.90;;
12597;SDS011;6364;53.590;9.956;2023-05-07T02:21:04;14.32;;;11.30;;
12597;SDS011;6364;53.590;9.956;2023-05-07T02:23:30;17.17;;;11.15;;
12597;SDS011;6364;53.590;9.956;2023-05-07T02:25:55;14.95;;;11.20;;
12597;SDS011;6364;53.590;9.956;2023-05-07T02:28:20;14.25;;;10.80;;
12597;SDS011;6364;53.590;9.956;2023-05-07T02:30:45;16.45;;;10.77;;
12597;SDS011;6364;53.590;9.956;2023-05-07T02:33:11;14.73;;;10.63;;
12597;SDS011;6364;53.590;9.956;2023-05-07T02:35:38;13.93;;;10.57;;
12597;SDS011;6364;53.590;9.956;2023-05-07T02:38:03;14.80;;;11.10;;
12597;SDS011;6364;53.590;9.956;2023-05-07T02:40:29;13.98;;;10.27;;
12597;SDS011;6364;53.590;9.956;2023-05-07T02:42:55;15.52;;;10.77;;
12597;SDS011;6364;53.590;9.956;2023-05-07T02:45:20;13.90;;;10.35;;
12597;SDS011;6364;53.590;9.956;2023-05-07T02:47:45;17.25;;;10.15;;
12597;SDS011;6364;53.590;9.956;2023-05-07T02:50:11;13.52;;;10.05;;
12597;SDS011;6364;53.590;9.956;2023-05-07T02:52:37;13.73;;;10.10;;
12597;SDS011;6364;53.590;9.956;2023-05-07T02:55:02;14.10;;;10.25;;
12597;SDS011;6364;53.590;9.956;2023-05-07T02:57:27;16.02;;;9.90;;
12597;SDS011;6364;53.590;9.956;2023-05-07T02:59:53;16.85;;;10.57;;
12597;SDS011;6364;53.590;9.956;2023-05-07T03:02:18;13.40;;;9.70;;
12597;SDS011;6364;53.590;9.956;2023-05-07T03:04:43;14.88;;;9.88;;
12597;SDS011;6364;53.590;9.956;2023-05-07T03:07:09;16.75;;;10.07;;
12597;SDS011;6364;53.590;9.956;2023-05-07T03:09:34;13.52;;;10.23;;
12597;SDS011;6364;53.590;9.956;2023-05-07T03:11:59;12.68;;;9.57;;
12597;SDS011;6364;53.590;9.956;2023-05-07T03:14:26;14.73;;;10.23;;
12597;SDS011;6364;53.590;9.956;2023-05-07T03:16:51;15.07;;;11.35;;
12597;SDS011;6364;53.590;9.956;2023-05-07T03:19:17;16.67;;;10.73;;
12597;SDS011;6364;53.590;9.956;2023-05-07T03:21:42;14.35;;;10.55;;
12597;SDS011;6364;53.590;9.956;2023-05-07T03:24:07;16.35;;;11.68;;
12597;SDS011;6364;53.590;9.956;2023-05-07T03:26:33;16.60;;;11.50;;
12597;SDS011;6364;53.590;9.956;2023-05-07T03:28:58;15.80;;;11.38;;
12597;SDS011;6364;53.590;9.956;2023-05-07T03:31:23;17.20;;;12.25;;
12597;SDS011;6364;53.590;9.956;2023-05-07T03:33:53;18.58;;;12.63;;
12597;SDS011;6364;53.590;9.956;2023-05-07T03:36:19;19.92;;;13.50;;
12597;SDS011;6364;53.590;9.956;2023-05-07T03:38:45;17.70;;;12.43;;
12597;SDS011;6364;53.590;9.956;2023-05-07T03:41:11;18.67;;;12.13;;
12597;SDS011;6364;53.590;9.956;2023-05-07T03:43:36;16.60;;;12.05;;
12597;SDS011;6364;53.590;9.956;2023-05-07T03:46:01;15.80;;;12.02;;
12597;SDS011;6364;53.590;9.956;2023-05-07T03:48:27;15.55;;;12.00;;
12597;SDS011;6364;53.590;9.956;2023-05-07T03:50:52;19.55;;;11.68;;
12597;SDS011;6364;53.590;9.956;2023-05-07T03:53:18;16.02;;;12.15;;
12597;SDS011;6364;53.590;9.956;2023-05-07T03:55:43;15.85;;;12.10;;
12597;SDS011;6364;53.590;9.956;2023-05-07T03:58:08;16.52;;;11.70;;
12597;SDS011;6364;53.590;9.956;2023-05-07T04:00:33;17.88;;;11.25;;
12597;SDS011;6364;53.590;9.956;2023-05-07T04:03:03;16.15;;;11.82;;
12597;SDS011;6364;53.590;9.956;2023-05-07T04:05:29;15.95;;;11.18;;
12597;SDS011;6364;53.590;9.956;2023-05-07T04:07:54;16.20;;;11.70;;
12597;SDS011;6364;53.590;9.956;2023-05-07T04:10:20;17.30;;;11.55;;
12597;SDS011;6364;53.590;9.956;2023-05-07T04:12:45;14.77;;;11.57;;
12597;SDS011;6364;53.590;9.956;2023-05-07T04:15:10;15.50;;;11.18;;
12597;SDS011;6364;53.590;9.956;2023-05-07T04:17:36;16.08;;;11.45;;
12597;SDS011;6364;53.590;9.956;2023-05-07T04:20:01;14.48;;;11.07;;
12597;SDS011;6364;53.590;9.956;2023-05-07T04:22:27;15.90;;;12.07;;
12597;SDS011;6364;53.590;9.956;2023-05-07T04:24:52;13.88;;;10.82;;
12597;SDS011;6364;53.590;9.956;2023-05-07T04:27:18;15.65;;;11.45;;
12597;SDS011;6364;53.590;9.956;2023-05-07T04:29:43;15.05;;;10.88;;
12597;SDS011;6364;53.590;9.956;2023-05-07T04:32:12;16.33;;;11.82;;
12597;SDS011;6364;53.590;9.956;2023-05-07T04:34:37;14.82;;;11.55;;
12597;SDS011;6364;53.590;9.956;2023-05-07T04:37:02;16.02;;;11.15;;
12597;SDS011;6364;53.590;9.956;2023-05-07T04:39:28;17.05;;;12.15;;
12597;SDS011;6364;53.590;9.956;2023-05-07T04:41:53;16.42;;;11.35;;
12597;SDS011;6364;53.590;9.956;2023-05-07T04:44:18;16.80;;;11.20;;
12597;SDS011;6364;53.590;9.956;2023-05-07T04:46:44;20.05;;;10.95;;
12597;SDS011;6364;53.590;9.956;2023-05-07T04:49:09;16.42;;;11.05;;
12597;SDS011;6364;53.590;9.956;2023-05-07T04:51:36;15.10;;;10.88;;
12597;SDS011;6364;53.590;9.956;2023-05-07T04:54:01;14.38;;;10.73;;
12597;SDS011;6364;53.590;9.956;2023-05-07T04:56:29;16.55;;;10.35;;
12597;SDS011;6364;53.590;9.956;2023-05-07T04:58:55;14.20;;;9.95;;
12597;SDS011;6364;53.590;9.956;2023-05-07T05:01:20;13.48;;;10.23;;
12597;SDS011;6364;53.590;9.956;2023-05-07T05:03:46;15.95;;;9.65;;
12597;SDS011;6364;53.590;9.956;2023-05-07T05:06:11;15.02;;;10.07;;
12597;SDS011;6364;53.590;9.956;2023-05-07T05:08:36;13.77;;;9.75;;
12597;SDS011;6364;53.590;9.956;2023-05-07T05:11:02;15.00;;;10.15;;
12597;SDS011;6364;53.590;9.956;2023-05-07T05:13:27;12.70;;;9.88;;
12597;SDS011;6364;53.590;9.956;2023-05-07T05:15:53;13.63;;;9.82;;
12597;SDS011;6364;53.590;9.956;2023-05-07T05:18:18;14.73;;;9.63;;
12597;SDS011;6364;53.590;9.956;2023-05-07T05:20:43;13.18;;;10.57;;
12597;SDS011;6364;53.590;9.956;2023-05-07T05:23:08;13.60;;;10.07;;
12597;SDS011;6364;53.590;9.956;2023-05-07T05:25:34;13.80;;;9.82;;
12597;SDS011;6364;53.590;9.956;2023-05-07T05:27:59;13.75;;;9.57;;
12597;SDS011;6364;53.590;9.956;2023-05-07T05:30:24;14.07;;;10.50;;
12597;SDS011;6364;53.590;9.956;2023-05-07T05:32:50;16.33;;;10.63;;
12597;SDS011;6364;53.590;9.956;2023-05-07T05:35:15;15.95;;;10.40;;
12597;SDS011;6364;53.590;9.956;2023-05-07T05:37:41;14.98;;;10.50;;
12597;SDS011;6364;53.590;9.956;2023-05-07T05:40:06;13.63;;;9.70;;
12597;SDS011;6364;53.590;9.956;2023-05-07T05:42:32;14.60;;;10.40;;
12597;SDS011;6364;53.590;9.956;2023-05-07T05:44:57;13.25;;;10.38;;
12597;SDS011;6364;53.590;9.956;2023-05-07T05:47:22;15.10;;;10.73;;
12597;SDS011;6364;53.590;9.956;2023-05-07T05:49:48;15.63;;;10.15;;
12597;SDS011;6364;53.590;9.956;2023-05-07T05:52:13;14.98;;;10.27;;
12597;SDS011;6364;53.590;9.956;2023-05-07T05:54:39;13.73;;;9.60;;
12597;SDS011;6364;53.590;9.956;2023-05-07T05:57:04;13.73;;;10.05;;
12597;SDS011;6364;53.590;9.956;2023-05-07T05:59:30;12.70;;;9.98;;
12597;SDS011;6364;53.590;9.956;2023-05-07T06:01:55;13.75;;;9.90;;
12597;SDS011;6364;53.590;9.956;2023-05-07T06:04:20;13.13;;;10.32;;
12597;SDS011;6364;53.590;9.956;2023-05-07T06:06:46;14.80;;;10.18;;
12597;SDS011;6364;53.590;9.956;2023-05-07T06:09:11;14.18;;;10.20;;
12597;SDS011;6364;53.590;9.956;2023-05-07T06:11:37;14.32;;;10.88;;
12597;SDS011;6364;53.590;9.956;2023-05-07T06:14:02;15.63;;;11.05;;
12597;SDS011;6364;53.590;9.956;2023-05-07T06:16:27;14.50;;;10.95;;
12597;SDS011;6364;53.590;9.956;2023-05-07T06:18:52;13.73;;;10.35;;
12597;SDS011;6364;53.590;9.956;2023-05-07T06:21:18;14.48;;;11.00;;
12597;SDS011;6364;53.590;9.956;2023-05-07T06:23:43;15.25;;;10.00;;
12597;SDS011;6364;53.590;9.956;2023-05-07T06:26:09;13.27;;;9.88;;
12597;SDS011;6364;53.590;9.956;2023-05-07T06:28:34;13.48;;;9.68;;
12597;SDS011;6364;53.590;9.956;2023-05-07T06:31:19;18.95;;;10.40;;
12597;SDS011;6364;53.590;9.956;2023-05-07T06:33:48;13.63;;;9.70;;
12597;SDS011;6364;53.590;9.956;2023-05-07T06:36:14;11.63;;;9.75;;
12597;SDS011;6364;53.590;9.956;2023-05-07T06:38:39;13.82;;;9.90;;
12597;SDS011;6364;53.590;9.956;2023-05-07T06:41:05;14.77;;;10.38;;
12597;SDS011;6364;53.590;9.956;2023-05-07T06:43:31;12.35;;;9.75;;
12597;SDS011;6364;53.590;9.956;2023-05-07T06:45:57;12.60;;;10.40;;
12597;SDS011;6364;53.590;9.956;2023-05-07T06:48:22;15.18;;;10.20;;
12597;SDS011;6364;53.590;9.956;2023-05-07T06:50:47;14.32;;;9.10;;
12597;SDS011;6364;53.590;9.956;2023-05-07T06:53:13;15.88;;;10.35;;
12597;SDS011;6364;53.590;9.956;2023-05-07T06:55:38;12.88;;;9.75;;
12597;SDS011;6364;53.590;9.956;2023-05-07T06:58:03;14.52;;;9.75;;
12597;SDS011;6364;53.590;9.956;2023-05-07T07:00:29;12.63;;;9.88;;
12597;SDS011;6364;53.590;9.956;2023-05-07T07:02:55;11.13;;;9.35;;
12597;SDS011;6364;53.590;9.956;2023-05-07T07:05:21;12.35;;;8.60;;
12597;SDS011;6364;53.590;9.956;2023-05-07T07:07:46;13.10;;;9.35;;
12597;SDS011;6364;53.590;9.956;2023-05-07T07:10:18;12.55;;;9.00;;
12597;SDS011;6364;53.590;9.956;2023-05-07T07:12:44;12.05;;;8.85;;
12597;SDS011;6364;53.590;9.956;2023-05-07T07:15:10;13.15;;;9.02;;
12597;SDS011;6364;53.590;9.956;2023-05-07T07:17:35;13.48;;;8.75;;
12597;SDS011;6364;53.590;9.956;2023-05-07T07:20:00;13.15;;;8.57;;
12597;SDS011;6364;53.590;9.956;2023-05-07T07:22:26;12.32;;;8.60;;
12597;SDS011;6364;53.590;9.956;2023-05-07T07:24:51;10.68;;;8.15;;
12597;SDS011;6364;53.590;9.956;2023-05-07T07:27:16;14.38;;;8.77;;
12597;SDS011;6364;53.590;9.956;2023-05-07T07:29:42;13.25;;;9.30;;
12597;SDS011;6364;53.590;9.956;2023-05-07T07:32:07;11.07;;;8.75;;
12597;SDS011;6364;53.590;9.956;2023-05-07T07:34:33;11.32;;;8.38;;
12597;SDS011;6364;53.590;9.956;2023-05-07T07:36:58;9.73;;;7.75;;
12597;SDS011;6364;53.590;9.956;2023-05-07T07:39:23;10.30;;;7.57;;
12597;SDS011;6364;53.590;9.956;2023-05-07T07:41:48;9.98;;;8.15;;
12597;SDS011;6364;53.590;9.956;2023-05-07T07:44:14;9.57;;;7.60;;
12597;SDS011;6364;53.590;9.956;2023-05-07T07:46:39;10.98;;;8.38;;
12597;SDS011;6364;53.590;9.956;2023-05-07T07:49:04;10.02;;;7.90;;
12597;SDS011;6364;53.590;9.956;2023-05-07T07:51:30;11.20;;;7.90;;
12597;SDS011;6364;53.590;9.956;2023-05-07T07:53:55;10.32;;;7.43;;
12597;SDS011;6364;53.590;9.956;2023-05-07T07:56:22;9.73;;;7.60;;
12597;SDS011;6364;53.590;9.956;2023-05-07T07:58:48;12.05;;;7.88;;
12597;SDS011;6364;53.590;9.956;2023-05-07T08:01:13;9.77;;;7.57;;
12597;SDS011;6364;53.590;9.956;2023-05-07T08:03:38;9.45;;;7.15;;
12597;SDS011;6364;53.590;9.956;2023-05-07T08:06:04;9.30;;;7.20;;
12597;SDS011;6364;53.590;9.956;2023-05-07T08:08:29;9.35;;;7.18;;
12597;SDS011;6364;53.590;9.956;2023-05-07T08:10:55;10.43;;;7.63;;
12597;SDS011;6364;53.590;9.956;2023-05-07T08:13:20;9.65;;;6.93;;
12597;SDS011;6364;53.590;9.956;2023-05-07T08:15:45;9.85;;;7.30;;
12597;SDS011;6364;53.590;9.956;2023-05-07T08:18:11;9.20;;;6.82;;
12597;SDS011;6364;53.590;9.956;2023-05-07T08:20:36;12.68;;;7.63;;
12597;SDS011;6364;53.590;9.956;2023-05-07T08:23:04;8.75;;;7.13;;
12597;SDS011;6364;53.590;9.956;2023-05-07T08:25:32;8.00;;;6.40;;
12597;SDS011;6364;53.590;9.956;2023-05-07T08:27:58;8.93;;;6.88;;
12597;SDS011;6364;53.590;9.956;2023-05-07T08:30:23;9.05;;;7.13;;
12597;SDS011;6364;53.590;9.956;2023-05-07T08:32:48;10.85;;;7.50;;
12597;SDS011;6364;53.590;9.956;2023-05-07T08:35:14;9.98;;;7.78;;
12597;SDS011;6364;53.590;9.956;2023-05-07T08:37:39;9.90;;;7.60;;
12597;SDS011;6364;53.590;9.956;2023-05-07T08:40:04;9.95;;;7.28;;
12597;SDS011;6364;53.590;9.956;2023-05-07T08:42:31;11.10;;;7.35;;
12597;SDS011;6364;53.590;9.956;2023-05-07T08:44:57;10.80;;;7.53;;
12597;SDS011;6364;53.590;9.956;2023-05-07T08:47:24;10.05;;;7.65;;
12597;SDS011;6364;53.590;9.956;2023-05-07T08:49:53;10.30;;;7.70;;
12597;SDS011;6364;53.590;9.956;2023-05-07T08:52:19;11.20;;;7.00;;
12597;SDS011;6364;53.590;9.956;2023-05-07T08:54:45;8.35;;;7.20;;
12597;SDS011;6364;53.590;9.956;2023-05-07T08:57:11;12.18;;;8.23;;
12597;SDS011;6364;53.590;9.956;2023-05-07T08:59:36;8.95;;;7.55;;
12597;SDS011;6364;53.590;9.956;2023-05-07T09:02:01;9.77;;;7.93;;
12597;SDS011;6364;53.590;9.956;2023-05-07T09:04:27;9.65;;;7.43;;
12597;SDS011;6364;53.590;9.956;2023-05-07T09:06:52;12.10;;;7.78;;
12597;SDS011;6364;53.590;9.956;2023-05-07T09:09:17;9.82;;;8.10;;
12597;SDS011;6364;53.590;9.956;2023-05-07T09:11:45;9.13;;;7.50;;
12597;SDS011;6364;53.590;9.956;2023-05-07T09:14:11;10.15;;;7.43;;
12597;SDS011;6364;53.590;9.956;2023-05-07T09:16:36;10.95;;;7.00;;
12597;SDS011;6364;53.590;9.956;2023-05-07T09:19:01;9.70;;;7.03;;
12597;SDS011;6364;53.590;9.956;2023-05-07T09:21:27;10.13;;;7.10;;
12597;SDS011;6364;53.590;9.956;2023-05-07T09:23:53;9.65;;;7.28;;
12597;SDS011;6364;53.590;9.956;2023-05-07T09:26:21;9.77;;;7.65;;
12597;SDS011;6364;53.590;9.956;2023-05-07T09:28:47;8.98;;;6.75;;
12597;SDS011;6364;53.590;9.956;2023-05-07T09:31:12;10.55;;;6.45;;
12597;SDS011;6364;53.590;9.956;2023-05-07T09:33:38;9.13;;;7.20;;
12597;SDS011;6364;53.590;9.956;2023-05-07T09:36:07;9.68;;;7.50;;
12597;SDS011;6364;53.590;9.956;2023-05-07T09:38:34;8.35;;;7.15;;
12597;SDS011;6364;53.590;9.956;2023-05-07T09:41:07;8.65;;;7.00;;
12597;SDS011;6364;53.590;9.956;2023-05-07T09:43:34;7.63;;;6.50;;
12597;SDS011;6364;53.590;9.956;2023-05-07T09:46:07;7.85;;;6.65;;
12597;SDS011;6364;53.590;9.956;2023-05-07T09:51:01;9.13;;;7.07;;
12597;SDS011;6364;53.590;9.956;2023-05-07T09:53:28;8.68;;;6.28;;
12597;SDS011;6364;53.590;9.956;2023-05-07T09:55:54;7.80;;;6.57;;
12597;SDS011;6364;53.590;9.956;2023-05-07T09:58:21;7.85;;;6.18;;
12597;SDS011;6364;53.590;9.956;2023-05-07T10:00:47;9.80;;;6.68;;
12597;SDS011;6364;53.590;9.956;2023-05-07T10:03:14;10.25;;;6.28;;
12597;SDS011;6364;53.590;9.956;2023-05-07T10:05:40;9.52;;;6.32;;
12597;SDS011;6364;53.590;9.956;2023-05-07T10:08:06;8.65;;;6.43;;
12597;SDS011;6364;53.590;9.956;2023-05-07T10:10:32;8.50;;;6.15;;
12597;SDS011;6364;53.590;9.956;2023-05-07T10:12:58;8.85;;;5.57;;
12597;SDS011;6364;53.590;9.956;2023-05-07T10:15:23;7.88;;;6.35;;
12597;SDS011;6364;53.590;9.956;2023-05-07T10:17:49;9.88;;;6.47;;
12597;SDS011;6364;53.590;9.956;2023-05-07T10:20:16;10.07;;;6.95;;
12597;SDS011;6364;53.590;9.956;2023-05-07T10:22:43;9.65;;;6.80;;
12597;SDS011;6364;53.590;9.956;2023-05-07T10:25:17;8.70;;;6.82;;
12597;SDS011;6364;53.590;9.956;2023-05-07T10:27:44;8.93;;;7.60;;
12597;SDS011;6364;53.590;9.956;2023-05-07T10:30:25;7.45;;;6.40;;
12597;SDS011;6364;53.590;9.956;2023-05-07T10:32:54;9.73;;;6.47;;
12597;SDS011;6364;53.590;9.956;2023-05-07T10:35:21;10.77;;;7.32;;
12597;SDS011;6364;53.590;9.956;2023-05-07T10:37:49;7.70;;;6.13;;
12597;SDS011;6364;53.590;9.956;2023-05-07T10:40:15;8.55;;;6.18;;
12597;SDS011;6364;53.590;9.956;2023-05-07T10:45:21;7.65;;;5.82;;
12597;SDS011;6364;53.590;9.956;2023-05-07T10:55:46;8.90;;;6.00;;
12597;SDS011;6364;53.590;9.956;2023-05-07T10:58:29;7.57;;;6.07;;
12597;SDS011;6364;53.590;9.956;2023-05-07T11:00:58;6.55;;;5.78;;
12597;SDS011;6364;53.590;9.956;2023-05-07T11:03:25;9.73;;;6.35;;
12597;SDS011;6364;53.590;9.956;2023-05-07T11:06:09;7.68;;;6.28;;
12597;SDS011;6364;53.590;9.956;2023-05-07T11:08:52;6.90;;;6.00;;
12597;SDS011;6364;53.590;9.956;2023-05-07T11:11:17;8.98;;;5.70;;
12597;SDS011;6364;53.590;9.956;2023-05-07T11:13:43;6.85;;;5.90;;
12597;SDS011;6364;53.590;9.956;2023-05-07T11:16:16;6.15;;;5.50;;
12597;SDS011;6364;53.590;9.956;2023-05-07T11:18:46;6.97;;;5.60;;
12597;SDS011;6364;53.590;9.956;2023-05-07T11:21:13;7.22;;;5.75;;
12597;SDS011;6364;53.590;9.956;2023-05-07T11:24:00;6.13;;;4.97;;
12597;SDS011;6364;53.590;9.956;2023-05-07T11:26:27;7.55;;;5.88;;
12597;SDS011;6364;53.590;9.956;2023-05-07T11:28:53;7.85;;;5.25;;
12597;SDS011;6364;53.590;9.956;2023-05-07T11:31:23;5.55;;;4.95;;
12597;SDS011;6364;53.590;9.956;2023-05-07T11:33:51;10.00;;;4.93;;
12597;SDS011;6364;53.590;9.956;2023-05-07T11:36:16;5.93;;;5.20;;
12597;SDS011;6364;53.590;9.956;2023-05-07T11:38:43;11.32;;;5.68;;
12597;SDS011;6364;53.590;9.956;2023-05-07T11:41:08;6.03;;;5.32;;
12597;SDS011;6364;53.590;9.956;2023-05-07T11:43:33;5.65;;;5.03;;
12597;SDS011;6364;53.590;9.956;2023-05-07T11:48:33;9.07;;;5.60;;
12597;SDS011;6364;53.590;9.956;2023-05-07T11:53:24;5.82;;;5.10;;
12597;SDS011;6364;53.590;9.956;2023-05-07T11:55:56;9.45;;;5.10;;
12597;SDS011;6364;53.590;9.956;2023-05-07T11:58:22;7.03;;;4.82;;
12597;SDS011;6364;53.590;9.956;2023-05-07T12:00:49;5.00;;;4.50;;
12597;SDS011;6364;53.590;9.956;2023-05-07T12:03:15;6.88;;;4.72;;
12597;SDS011;6364;53.590;9.956;2023-05-07T12:05:41;5.38;;;4.45;;
12597;SDS011;6364;53.590;9.956;2023-05-07T12:08:07;5.47;;;4.97;;
12597;SDS011;6364;53.590;9.956;2023-05-07T12:10:32;5.68;;;4.53;;
12597;SDS011;6364;53.590;9.956;2023-05-07T12:12:58;4.82;;;4.20;;
12597;SDS011;6364;53.590;9.956;2023-05-07T12:15:23;5.85;;;4.60;;
12597;SDS011;6364;53.590;9.956;2023-05-07T12:17:48;6.60;;;4.45;;
12597;SDS011;6364;53.590;9.956;2023-05-07T12:20:14;6.93;;;5.93;;
12597;SDS011;6364;53.590;9.956;2023-05-07T12:22:40;5.45;;;4.40;;
12597;SDS011;6364;53.590;9.956;2023-05-07T12:25:06;4.93;;;4.25;;
12597;SDS011;6364;53.590;9.956;2023-05-07T12:27:31;6.20;;;4.05;;
12597;SDS011;6364;53.590;9.956;2023-05-07T12:29:57;4.43;;;4.03;;
12597;SDS011;6364;53.590;9.956;2023-05-07T12:32:24;4.65;;;3.90;;
12597;SDS011;6364;53.590;9.956;2023-05-07T12:34:50;5.82;;;3.88;;
12597;SDS011;6364;53.590;9.956;2023-05-07T12:37:15;4.97;;;3.97;;
12597;SDS011;6364;53.590;9.956;2023-05-07T12:39:44;4.28;;;3.30;;
12597;SDS011;6364;53.590;9.956;2023-05-07T12:42:14;4.60;;;3.47;;
12597;SDS011;6364;53.590;9.956;2023-05-07T12:44:40;4.50;;;3.50;;
12597;SDS011;6364;53.590;9.956;2023-05-07T12:47:06;5.35;;;3.70;;
12597;SDS011;6364;53.590;9.956;2023-05-07T12:49:33;5.20;;;3.50;;
12597;SDS011;6364;53.590;9.956;2023-05-07T12:51:59;4.18;;;3.72;;
12597;SDS011;6364;53.590;9.956;2023-05-07T12:54:28;4.28;;;3.58;;
12597;SDS011;6364;53.590;9.956;2023-05-07T12:57:01;5.43;;;3.72;;
12597;SDS011;6364;53.590;9.956;2023-05-07T12:59:31;4.53;;;3.25;;
12597;SDS011;6364;53.590;9.956;2023-05-07T13:02:03;8.07;;;3.83;;
12597;SDS011;6364;53.590;9.956;2023-05-07T13:04:29;4.97;;;3.80;;
12597;SDS011;6364;53.590;9.956;2023-05-07T13:06:55;4.22;;;3.72;;
12597;SDS011;6364;53.590;9.956;2023-05-07T13:09:20;3.78;;;3.30;;
12597;SDS011;6364;53.590;9.956;2023-05-07T13:11:45;5.10;;;3.63;;
12597;SDS011;6364;53.590;9.956;2023-05-07T13:14:11;6.05;;;3.70;;
12597;SDS011;6364;53.590;9.956;2023-05-07T13:16:36;5.20;;;4.00;;
12597;SDS011;6364;53.590;9.956;2023-05-07T13:19:02;3.50;;;2.97;;
12597;SDS011;6364;53.590;9.956;2023-05-07T13:21:27;4.25;;;3.22;;
12597;SDS011;6364;53.590;9.956;2023-05-07T13:23:52;6.75;;;3.55;;
12597;SDS011;6364;53.590;9.956;2023-05-07T13:26:18;3.30;;;2.80;;
12597;SDS011;6364;53.590;9.956;2023-05-07T13:28:43;3.60;;;3.00;;
12597;SDS011;6364;53.590;9.956;2023-05-07T13:31:09;3.50;;;3.20;;
12597;SDS011;6364;53.590;9.956;2023-05-07T13:33:34;3.20;;;2.90;;
12597;SDS011;6364;53.590;9.956;2023-05-07T13:36:00;7.07;;;3.30;;
12597;SDS011;6364;53.590;9.956;2023-05-07T13:38:28;3.13;;;2.83;;
12597;SDS011;6364;53.590;9.956;2023-05-07T13:40:54;4.35;;;2.95;;
12597;SDS011;6364;53.590;9.956;2023-05-07T13:43:19;4.03;;;2.65;;
12597;SDS011;6364;53.590;9.956;2023-05-07T13:45:44;6.78;;;2.97;;
12597;SDS011;6364;53.590;9.956;2023-05-07T13:48:10;3.03;;;2.80;;
12597;SDS011;6364;53.590;9.956;2023-05-07T13:50:35;2.92;;;2.47;;
12597;SDS011;6364;53.590;9.956;2023-05-07T13:53:00;2.80;;;2.60;;
12597;SDS011;6364;53.590;9.956;2023-05-07T13:55:28;3.55;;;2.55;;
12597;SDS011;6364;53.590;9.956;2023-05-07T13:57:54;2.95;;;2.40;;
12597;SDS011;6364;53.590;9.956;2023-05-07T14:00:23;2.70;;;2.50;;
12597;SDS011;6364;53.590;9.956;2023-05-07T14:02:49;3.42;;;2.40;;
12597;SDS011;6364;53.590;9.956;2023-05-07T14:05:15;4.55;;;2.47;;
12597;SDS011;6364;53.590;9.956;2023-05-07T14:07:40;2.42;;;2.20;;
12597;SDS011;6364;53.590;9.956;2023-05-07T14:10:05;2.60;;;2.30;;
12597;SDS011;6364;53.590;9.956;2023-05-07T14:12:32;3.35;;;2.33;;
12597;SDS011;6364;53.590;9.956;2023-05-07T14:14:57;2.35;;;2.15;;
12597;SDS011;6364;53.590;9.956;2023-05-07T14:17:23;2.47;;;2.28;;
12597;SDS011;6364;53.590;9.956;2023-05-07T14:19:50;2.42;;;2.22;;
12597;SDS011;6364;53.590;9.956;2023-05-07T14:22:15;2.30;;;2.10;;
12597;SDS011;6364;53.590;9.956;2023-05-07T14:24:41;2.97;;;2.65;;
12597;SDS011;6364;53.590;9.956;2023-05-07T14:27:06;4.15;;;2.30;;
12597;SDS011;6364;53.590;9.956;2023-05-07T14:29:31;3.97;;;2.40;;
12597;SDS011;6364;53.590;9.956;2023-05-07T14:31:57;2.75;;;2.35;;
12597;SDS011;6364;53.590;9.956;2023-05-07T14:34:22;5.50;;;2.30;;
12597;SDS011;6364;53.590;9.956;2023-05-07T14:36:47;3.05;;;2.10;;
12597;SDS011;6364;53.590;9.956;2023-05-07T14:39:13;8.60;;;2.08;;
12597;SDS011;6364;53.590;9.956;2023-05-07T14:41:39;3.78;;;2.17;;
12597;SDS011;6364;53.590;9.956;2023-05-07T14:44:05;2.67;;;2.38;;
12597;SDS011;6364;53.590;9.956;2023-05-07T14:46:30;5.45;;;2.85;;
12597;SDS011;6364;53.590;9.956;2023-05-07T14:48:56;2.45;;;2.25;;
12597;SDS011;6364;53.590;9.956;2023-05-07T14:51:21;2.67;;;2.05;;
12597;SDS011;6364;53.590;9.956;2023-05-07T14:53:47;2.80;;;2.30;;
12597;SDS011;6364;53.590;9.956;2023-05-07T14:56:12;3.30;;;2.28;;
12597;SDS011;6364;53.590;9.956;2023-05-07T14:58:37;5.13;;;2.20;;
12597;SDS011;6364;53.590;9.956;2023-05-07T15:01:03;3.47;;;2.50;;